createdAt,value
2023-03-22T00:00:22.313Z,52.40
2023-03-22T00:03:17.380Z,52.37
2023-03-22T00:06:14.395Z,52.61
2023-03-22T00:08:48.434Z,53.20
2023-03-22T00:11:36.302Z,53.06
2023-03-22T00:14:18.272Z,52.88
2023-03-22T00:17:05.283Z,53.07
2023-03-22T00:19:48.289Z,52.94
2023-03-22T00:22:42.267Z,52.95
2023-03-22T00:25:30.308Z,52.80
2023-03-22T00:28:03.556Z,53.26
2023-03-22T00:30:58.280Z,53.69
2023-03-22T00:33:32.354Z,53.30
2023-03-22T00:36:19.270Z,53.17
2023-03-22T00:38:52.427Z,53.47
2023-03-22T00:41:39.293Z,53.22
2023-03-22T00:44:12.457Z,53.12
2023-03-22T00:47:00.310Z,53.56
2023-03-22T00:49:41.294Z,53.27
2023-03-22T00:52:39.303Z,53.06
2023-03-22T00:55:26.324Z,52.98
2023-03-22T00:58:00.442Z,52.95
2023-03-22T01:00:47.296Z,53.07
2023-03-22T01:03:22.378Z,52.75
2023-03-22T01:06:09.351Z,53.40
2023-03-22T01:08:43.401Z,53.25
2023-03-22T01:11:31.348Z,53.66
2023-03-22T01:14:05.416Z,53.31
2023-03-22T01:16:52.313Z,53.42
2023-03-22T01:19:35.281Z,53.35
2023-03-22T01:22:22.263Z,53.57
2023-03-22T01:25:03.278Z,53.59
2023-03-22T01:27:50.283Z,53.63
2023-03-22T01:30:24.382Z,53.72
2023-03-22T01:33:14.285Z,53.61
2023-03-22T01:35:56.344Z,53.51
2023-03-22T01:38:51.276Z,53.62
2023-03-22T01:41:41.315Z,53.46
2023-03-22T01:44:24.282Z,53.64
2023-03-22T01:47:11.243Z,53.57
2023-03-22T01:49:46.429Z,53.69
2023-03-22T01:52:35.279Z,53.85
2023-03-22T01:55:16.290Z,53.94
2023-03-22T01:58:03.307Z,54.23
2023-03-22T02:00:37.705Z,54.18
2023-03-22T02:03:29.326Z,54.64
2023-03-22T02:06:10.568Z,54.65
2023-03-22T02:08:53.296Z,54.61
2023-03-22T02:11:38.575Z,54.80
2023-03-22T02:14:35.277Z,54.55
2023-03-22T02:17:33.375Z,54.41
2023-03-22T02:20:53.272Z,54.32
2023-03-22T02:24:08.265Z,54.11
2023-03-22T02:26:55.015Z,53.90
2023-03-22T02:29:52.297Z,53.87
2023-03-22T02:33:14.284Z,54.07
2023-03-22T02:36:20.453Z,53.83
2023-03-22T02:39:14.516Z,54.29
2023-03-22T02:42:22.295Z,54.03
2023-03-22T02:45:01.478Z,54.45
2023-03-22T02:48:18.255Z,54.02
2023-03-22T02:50:58.345Z,54.31
2023-03-22T02:53:44.254Z,53.98
2023-03-22T02:56:32.367Z,54.49
2023-03-22T02:59:15.290Z,54.67
2023-03-22T03:01:58.436Z,55.09
2023-03-22T03:04:43.330Z,55.46
2023-03-22T03:07:34.292Z,55.54
2023-03-22T03:10:16.290Z,55.83
2023-03-22T03:13:13.275Z,55.94
2023-03-22T03:16:10.280Z,55.87
2023-03-22T03:19:05.252Z,56.07
2023-03-22T03:21:54.365Z,55.92
2023-03-22T03:24:40.238Z,55.84
2023-03-22T03:27:24.322Z,55.76
2023-03-22T03:30:11.251Z,55.94
2023-03-22T03:33:06.266Z,56.10
2023-03-22T03:35:44.089Z,56.13
2023-03-22T03:38:35.250Z,56.53
2023-03-22T03:41:19.255Z,56.72
2023-03-22T03:44:01.341Z,57.66
2023-03-22T03:46:43.263Z,58.00
2023-03-22T03:49:30.240Z,58.21
2023-03-22T03:52:05.296Z,58.18
2023-03-22T03:54:52.275Z,58.17
2023-03-22T03:57:25.778Z,58.34
2023-03-22T04:00:12.242Z,58.63
2023-03-22T04:02:47.225Z,58.65
2023-03-22T04:05:34.206Z,58.40
2023-03-22T04:08:08.451Z,59.12
2023-03-22T04:10:55.213Z,59.19
2023-03-22T04:13:42.227Z,58.82
2023-03-22T04:16:31.318Z,58.92
2023-03-22T04:19:06.352Z,59.03
2023-03-22T04:21:53.324Z,58.78
2023-03-22T04:24:35.284Z,59.25
2023-03-22T04:27:30.235Z,59.68
2023-03-22T04:30:25.195Z,59.20
2023-03-22T04:33:05.238Z,59.31
2023-03-22T04:36:04.598Z,60.18
2023-03-22T04:38:58.231Z,59.63
2023-03-22T04:41:45.240Z,59.93
2023-03-22T04:44:19.437Z,60.67
2023-03-22T04:47:06.286Z,61.07
2023-03-22T04:49:47.214Z,60.63
2023-03-22T04:52:42.268Z,60.72
2023-03-22T04:55:36.240Z,61.18
2023-03-22T04:58:23.181Z,60.80
2023-03-22T05:01:05.208Z,60.69
2023-03-22T05:03:59.198Z,60.07
2023-03-22T05:06:46.286Z,60.12
2023-03-22T05:09:28.275Z,60.49
2023-03-22T05:12:08.219Z,59.89
2023-03-22T05:15:02.176Z,56.66
2023-03-22T05:17:49.228Z,54.29
2023-03-22T05:20:23.356Z,53.14
2023-03-22T05:23:11.176Z,53.81
2023-03-22T05:25:46.837Z,53.45
2023-03-22T05:28:35.200Z,52.93
2023-03-22T05:31:17.296Z,53.37
2023-03-22T05:34:04.228Z,52.68
2023-03-22T05:36:45.228Z,51.90
2023-03-22T05:39:39.256Z,50.31
2023-03-22T05:42:27.294Z,49.78
2023-03-22T05:45:01.313Z,50.20
2023-03-22T05:47:48.226Z,49.91
2023-03-22T05:50:24.362Z,49.44
2023-03-22T05:53:11.220Z,49.83
2023-03-22T05:55:45.300Z,48.42
2023-03-22T05:58:37.249Z,51.45
2023-03-22T06:01:24.258Z,52.01
2023-03-22T06:04:18.213Z,52.05
2023-03-22T06:07:12.261Z,52.95
2023-03-22T06:10:06.204Z,53.54
2023-03-22T06:13:02.277Z,53.22
2023-03-22T06:15:51.408Z,52.00
2023-03-22T06:18:25.479Z,53.09
2023-03-22T06:21:13.196Z,53.46
2023-03-22T06:23:53.257Z,53.98
2023-03-22T06:26:47.219Z,53.18
2023-03-22T06:29:34.188Z,51.42
2023-03-22T06:32:09.281Z,50.38
2023-03-22T06:34:56.224Z,49.68
2023-03-22T06:37:32.590Z,49.43
2023-03-22T06:40:19.227Z,49.34
2023-03-22T06:42:54.430Z,50.10
2023-03-22T06:45:42.331Z,50.02
2023-03-22T06:48:24.252Z,49.89
2023-03-22T06:54:31.706Z,48.63
2023-03-22T06:56:59.091Z,48.02
2023-03-22T06:59:26.178Z,48.11
2023-03-22T07:01:53.412Z,47.88
2023-03-22T07:04:21.752Z,48.02
2023-03-22T07:06:49.146Z,47.92
2023-03-22T07:09:16.437Z,47.86
2023-03-22T07:11:43.839Z,48.13
2023-03-22T07:14:11.370Z,48.49
2023-03-22T07:16:38.666Z,48.36
2023-03-22T07:19:05.967Z,48.36
2023-03-22T07:21:37.649Z,48.14
2023-03-22T07:24:06.761Z,47.06
2023-03-22T07:26:37.664Z,47.30
2023-03-22T07:29:04.652Z,47.05
2023-03-22T07:31:35.712Z,46.65
2023-03-22T07:34:03.593Z,46.01
2023-03-22T07:36:30.811Z,46.06
2023-03-22T07:38:59.196Z,46.46
2023-03-22T07:41:28.756Z,46.09
2023-03-22T07:44:07.910Z,46.19
2023-03-22T07:46:44.349Z,46.10
2023-03-22T07:49:11.422Z,46.12
2023-03-22T07:51:38.968Z,45.29
2023-03-22T07:54:07.997Z,46.31
2023-03-22T07:56:35.883Z,46.16
2023-03-22T07:59:04.761Z,44.95
2023-03-22T08:01:32.081Z,44.62
2023-03-22T08:03:59.798Z,44.73
2023-03-22T08:06:27.131Z,44.64
2023-03-22T08:08:54.099Z,44.47
2023-03-22T08:11:22.755Z,44.06
2023-03-22T08:13:50.165Z,44.17
2023-03-22T08:16:17.655Z,42.98
2023-03-22T08:18:45.466Z,43.84
2023-03-22T08:21:13.011Z,43.94
2023-03-22T08:23:43.210Z,43.13
2023-03-22T08:26:13.567Z,42.87
2023-03-22T08:28:42.063Z,42.38
2023-03-22T08:31:15.066Z,42.35
2023-03-22T08:33:43.099Z,42.43
2023-03-22T08:36:13.726Z,42.34
2023-03-22T08:38:42.388Z,42.03
2023-03-22T08:41:09.865Z,41.18
2023-03-22T08:43:36.716Z,41.72
2023-03-22T08:46:06.102Z,40.78
2023-03-22T08:48:34.756Z,40.80
2023-03-22T08:51:02.276Z,40.72
2023-03-22T08:53:29.591Z,40.92
2023-03-22T08:55:58.211Z,40.79
2023-03-22T08:58:25.282Z,41.18
2023-03-22T09:00:52.768Z,40.63
2023-03-22T09:03:22.866Z,40.24
2023-03-22T09:05:50.129Z,39.73
2023-03-22T09:08:19.486Z,39.85
2023-03-22T09:10:51.276Z,39.16
2023-03-22T09:13:19.055Z,38.83
2023-03-22T09:15:46.778Z,38.70
2023-03-22T09:18:14.458Z,38.25
2023-03-22T09:20:44.793Z,37.77
2023-03-22T09:23:12.057Z,38.46
2023-03-22T09:25:42.638Z,38.36
2023-03-22T09:28:10.039Z,38.83
2023-03-22T09:30:38.103Z,38.30
2023-03-22T09:33:06.719Z,38.74
2023-03-22T09:35:34.241Z,38.50
2023-03-22T09:38:03.589Z,39.16
2023-03-22T09:40:33.288Z,38.94
2023-03-22T09:43:04.364Z,38.67
2023-03-22T09:45:38.116Z,39.03
2023-03-22T09:48:09.318Z,38.66
2023-03-22T09:50:43.834Z,38.89
2023-03-22T09:53:14.852Z,38.65
2023-03-22T09:55:46.455Z,38.66
2023-03-22T09:58:25.422Z,38.05
2023-03-22T10:00:57.736Z,38.33
2023-03-22T10:03:51.266Z,37.96
2023-03-22T10:06:20.632Z,38.15
2023-03-22T10:08:59.529Z,37.15
2023-03-22T10:11:38.589Z,36.97
2023-03-22T10:14:21.405Z,37.09
2023-03-22T10:16:52.435Z,36.31
2023-03-22T10:19:24.402Z,36.13
2023-03-22T10:21:55.710Z,36.60
2023-03-22T10:24:44.456Z,37.05
2023-03-22T10:27:15.456Z,36.95
2023-03-22T10:29:48.760Z,36.78
2023-03-22T10:32:18.099Z,37.31
2023-03-22T10:34:46.614Z,37.60
2023-03-22T10:37:16.519Z,37.30
2023-03-22T10:39:54.004Z,37.96
2023-03-22T10:42:25.963Z,38.03
2023-03-22T10:44:56.137Z,37.14
2023-03-22T10:47:30.596Z,37.32
2023-03-22T10:50:03.499Z,37.15
2023-03-22T10:52:44.922Z,37.04
2023-03-22T10:55:15.494Z,37.09
2023-03-22T10:57:51.497Z,36.42
2023-03-22T11:00:20.884Z,36.78
2023-03-22T11:02:52.799Z,36.13
2023-03-22T11:05:23.620Z,36.91
2023-03-22T11:07:51.276Z,37.14
2023-03-22T11:10:23.337Z,35.85
2023-03-22T11:12:53.498Z,36.75
2023-03-22T11:15:26.065Z,37.03
2023-03-22T11:17:59.059Z,36.45
2023-03-22T11:20:26.375Z,37.26
2023-03-22T11:22:56.318Z,36.54
2023-03-22T11:25:30.196Z,36.22
2023-03-22T11:28:09.594Z,36.92
2023-03-22T11:30:37.525Z,36.33
2023-03-22T11:33:17.379Z,36.31
2023-03-22T11:35:46.436Z,36.27
2023-03-22T11:38:36.852Z,36.49
2023-03-22T11:41:12.717Z,36.20
2023-03-22T11:43:44.774Z,35.78
2023-03-22T11:46:12.362Z,36.21
2023-03-22T11:48:42.293Z,35.86
2023-03-22T11:51:12.692Z,35.88
2023-03-22T11:53:43.299Z,35.34
2023-03-22T11:56:15.933Z,35.43
2023-03-22T11:58:51.407Z,34.85
2023-03-22T12:01:24.441Z,35.18
2023-03-22T12:03:57.838Z,34.35
2023-03-22T12:06:29.514Z,37.14
2023-03-22T12:09:01.900Z,35.75
2023-03-22T12:11:34.358Z,36.08
2023-03-22T12:14:05.140Z,34.76
2023-03-22T12:16:37.125Z,32.95
2023-03-22T12:19:16.412Z,32.77
2023-03-22T12:21:45.200Z,33.04
2023-03-22T12:24:24.965Z,33.13
2023-03-22T12:26:58.491Z,32.98
2023-03-22T12:29:27.267Z,31.86
2023-03-22T12:32:00.287Z,32.07
2023-03-22T12:34:36.973Z,32.08
2023-03-22T12:37:09.278Z,32.60
2023-03-22T12:39:41.189Z,32.94
2023-03-22T12:42:21.908Z,33.04
2023-03-22T12:45:04.192Z,32.90
2023-03-22T12:47:39.420Z,33.31
2023-03-22T12:50:14.001Z,33.04
2023-03-22T12:52:46.254Z,32.44
2023-03-22T12:55:22.229Z,32.87
2023-03-22T12:57:54.623Z,31.91
2023-03-22T13:00:28.619Z,32.36
2023-03-22T13:03:02.211Z,32.90
2023-03-22T13:05:32.310Z,32.22
2023-03-22T13:08:03.299Z,31.70
2023-03-22T13:10:59.677Z,32.76
2023-03-22T13:13:48.821Z,30.98
2023-03-22T13:16:23.060Z,31.09
2023-03-22T13:19:17.369Z,31.47
2023-03-22T13:21:48.484Z,30.99
2023-03-22T13:24:23.994Z,30.72
2023-03-22T13:26:53.438Z,30.42
2023-03-22T13:29:27.130Z,30.80
2023-03-22T13:31:58.514Z,30.36
2023-03-22T13:34:38.276Z,30.31
2023-03-22T13:37:10.878Z,29.70
2023-03-22T13:39:39.319Z,30.71
2023-03-22T13:42:08.735Z,31.04
2023-03-22T13:44:46.820Z,30.86
2023-03-22T13:47:31.688Z,30.02
2023-03-22T13:50:06.211Z,30.63
2023-03-22T13:52:38.602Z,30.82
2023-03-22T13:55:36.158Z,30.48
2023-03-22T13:58:05.606Z,30.52
2023-03-22T14:00:48.316Z,31.01
2023-03-22T14:03:23.570Z,30.39
2023-03-22T14:06:00.648Z,30.42
2023-03-22T14:08:30.397Z,30.14
2023-03-22T14:11:04.033Z,29.93
2023-03-22T14:13:36.562Z,29.91
2023-03-22T14:16:09.784Z,30.19
2023-03-22T14:18:42.160Z,30.37
2023-03-22T14:21:15.734Z,30.34
